Weather at Newcastle Airport

Public forecast

Using degrees Celsius for public forecast. Weather courtesy of forecast.io.

Current aviation weather report (METAR) for Newcastle Airport

2024/06/18 05:20 (retrieved 19 minutes ago)

EGNT 180520Z 29005KT 9999 FEW017 BKN024 11/10 Q1013

Closest aviation forecast (TAF) to Newcastle Airport

Forecast is more than 6 hours old.

Closest forecast is RAF Waddington, 119.6 nm (221.6 km) SSE.

2024/06/17 18:07 (retrieved 12 hours ago)

TAF EGXW 172001Z 1718/1812 CNL